createdAt,value
2023-04-16T00:02:06.238Z,2.25
2023-04-16T00:04:33.264Z,2.25
2023-04-16T00:07:00.624Z,2.33
2023-04-16T00:09:27.447Z,2.38
2023-04-16T00:11:54.256Z,3.40
2023-04-16T00:14:21.698Z,2.40
2023-04-16T00:16:48.537Z,2.38
2023-04-16T00:19:15.952Z,2.83
2023-04-16T00:21:43.222Z,3.30
2023-04-16T00:24:10.654Z,2.70
2023-04-16T00:26:37.642Z,3.05
2023-04-16T00:29:04.931Z,3.33
2023-04-16T00:31:33.369Z,2.63
2023-04-16T00:34:01.033Z,2.63
2023-04-16T00:36:28.537Z,2.63
2023-04-16T00:38:56.243Z,3.38
2023-04-16T00:41:23.791Z,3.10
2023-04-16T00:43:51.596Z,3.20
2023-04-16T00:46:21.381Z,3.42
2023-04-16T00:48:50.246Z,3.25
2023-04-16T00:51:18.688Z,2.67
2023-04-16T00:53:46.827Z,2.78
2023-04-16T00:56:14.102Z,3.58
2023-04-16T00:58:41.069Z,2.90
2023-04-16T01:01:07.978Z,2.80
2023-04-16T01:03:41.116Z,3.20
2023-04-16T01:06:08.744Z,2.92
2023-04-16T01:08:36.107Z,3.10
2023-04-16T01:11:03.577Z,3.22
2023-04-16T01:13:31.066Z,3.30
2023-04-16T01:15:58.368Z,2.95
2023-04-16T01:18:26.365Z,3.22
2023-04-16T01:20:53.756Z,3.15
2023-04-16T01:23:21.410Z,3.38
2023-04-16T01:25:48.357Z,3.05
2023-04-16T01:28:15.853Z,3.80
2023-04-16T01:30:43.679Z,3.45
2023-04-16T01:33:33.052Z,3.30
2023-04-16T01:36:00.373Z,3.13
2023-04-16T01:38:28.262Z,3.10
2023-04-16T01:40:59.479Z,3.05
2023-04-16T01:43:26.442Z,2.72
2023-04-16T01:46:18.024Z,3.50
2023-04-16T01:48:45.260Z,3.35
2023-04-16T01:51:12.398Z,3.03
2023-04-16T01:53:39.711Z,3.08
2023-04-16T01:56:07.117Z,3.00
2023-04-16T01:58:34.667Z,3.33
2023-04-16T02:01:02.055Z,3.08
2023-04-16T02:03:31.314Z,3.17
2023-04-16T02:05:58.585Z,3.47
2023-04-16T02:08:25.909Z,3.30
2023-04-16T02:10:53.181Z,3.45
2023-04-16T02:13:20.477Z,3.20
2023-04-16T02:15:50.951Z,2.97
2023-04-16T02:18:25.792Z,3.67
2023-04-16T02:20:53.308Z,3.40
2023-04-16T02:23:21.153Z,3.88
2023-04-16T02:25:48.131Z,3.58
2023-04-16T02:28:17.082Z,2.78
2023-04-16T02:30:46.271Z,3.25
2023-04-16T02:33:15.704Z,3.20
2023-04-16T02:35:53.600Z,3.47
2023-04-16T02:38:20.604Z,3.42
2023-04-16T02:40:47.959Z,3.45
2023-04-16T02:43:16.816Z,3.22
2023-04-16T02:45:44.844Z,3.45
2023-04-16T02:48:12.239Z,3.30
2023-04-16T02:50:39.109Z,3.80
2023-04-16T02:53:07.833Z,3.20
2023-04-16T02:55:35.121Z,3.65
2023-04-16T02:58:02.388Z,2.85
2023-04-16T03:00:29.277Z,3.58
2023-04-16T03:02:57.242Z,3.95
2023-04-16T03:05:24.735Z,3.20
2023-04-16T03:07:56.539Z,3.75
2023-04-16T03:10:24.217Z,3.38
2023-04-16T03:12:51.574Z,3.42
2023-04-16T03:15:18.836Z,3.58
2023-04-16T03:17:46.319Z,3.45
2023-04-16T03:20:14.461Z,3.95
2023-04-16T03:22:42.084Z,3.40
2023-04-16T03:25:09.514Z,3.28
2023-04-16T03:27:36.885Z,3.53
2023-04-16T03:30:04.826Z,3.25
2023-04-16T03:32:34.692Z,3.72
2023-04-16T03:35:02.887Z,3.15
2023-04-16T03:37:29.823Z,2.90
2023-04-16T03:39:56.692Z,3.70
2023-04-16T03:42:23.929Z,4.32
2023-04-16T03:44:53.036Z,3.28
2023-04-16T03:47:21.939Z,3.60
2023-04-16T03:49:51.055Z,3.72
2023-04-16T03:52:19.223Z,3.97
2023-04-16T03:54:46.494Z,4.22
2023-04-16T03:57:25.474Z,3.95
2023-04-16T03:59:55.963Z,3.30
2023-04-16T04:02:24.406Z,4.13
2023-04-16T04:04:51.585Z,3.85
2023-04-16T04:07:18.478Z,3.72
2023-04-16T04:09:45.734Z,3.65
2023-04-16T04:12:13.571Z,3.75
2023-04-16T04:14:41.981Z,3.78
2023-04-16T04:17:09.407Z,3.45
2023-04-16T04:19:37.808Z,3.30
2023-04-16T04:22:08.041Z,3.58
2023-04-16T04:24:38.140Z,3.67
2023-04-16T04:27:05.547Z,4.13
2023-04-16T04:29:33.161Z,3.85
2023-04-16T04:32:00.180Z,3.67
2023-04-16T04:34:27.555Z,3.70
2023-04-16T04:36:56.479Z,3.95
2023-04-16T04:39:23.478Z,3.92
2023-04-16T04:41:51.181Z,4.40
2023-04-16T04:44:19.394Z,4.00
2023-04-16T04:46:46.269Z,4.22
2023-04-16T04:49:13.521Z,4.68
2023-04-16T04:51:40.790Z,4.50
2023-04-16T04:54:07.749Z,4.68
2023-04-16T04:56:35.033Z,4.35
2023-04-16T04:59:02.664Z,4.63
2023-04-16T05:01:29.935Z,4.30
2023-04-16T05:03:56.779Z,4.28
2023-04-16T05:06:25.714Z,4.53
2023-04-16T05:08:56.286Z,4.93
2023-04-16T05:11:23.978Z,3.60
2023-04-16T05:13:51.252Z,4.53
2023-04-16T05:16:18.505Z,4.13
2023-04-16T05:18:46.021Z,4.35
2023-04-16T05:21:13.266Z,4.35
2023-04-16T05:23:40.528Z,4.45
2023-04-16T05:26:07.915Z,3.83
2023-04-16T05:28:35.185Z,4.20
2023-04-16T05:31:02.452Z,4.45
2023-04-16T05:33:29.514Z,4.28
2023-04-16T05:35:56.715Z,3.83
2023-04-16T05:38:23.534Z,4.28
2023-04-16T05:40:50.739Z,4.70
2023-04-16T05:43:17.779Z,4.18
2023-04-16T05:45:45.015Z,3.67
2023-04-16T05:48:12.466Z,4.35
2023-04-16T05:50:39.772Z,4.20
2023-04-16T05:53:08.387Z,4.90
2023-04-16T05:55:36.925Z,4.80
2023-04-16T05:58:06.505Z,4.43
2023-04-16T06:00:34.047Z,4.25
2023-04-16T06:03:01.886Z,4.18
2023-04-16T06:05:29.492Z,4.80
2023-04-16T06:07:57.011Z,4.00
2023-04-16T06:10:24.232Z,4.32
2023-04-16T06:12:51.641Z,4.30
2023-04-16T06:15:18.895Z,4.57
2023-04-16T06:17:46.154Z,5.10
2023-04-16T06:20:14.128Z,4.15
2023-04-16T06:22:41.697Z,4.53
2023-04-16T06:25:09.825Z,4.40
2023-04-16T06:27:37.680Z,5.07
2023-04-16T06:30:05.352Z,4.68
2023-04-16T06:32:32.581Z,4.30
2023-04-16T06:34:59.858Z,4.47
2023-04-16T06:37:27.417Z,5.07
2023-04-16T06:39:54.656Z,4.47
2023-04-16T06:42:22.066Z,4.38
2023-04-16T06:44:49.792Z,4.78
2023-04-16T06:47:17.047Z,5.07
2023-04-16T06:49:44.318Z,4.82
2023-04-16T06:52:11.881Z,5.63
2023-04-16T06:54:39.261Z,5.53
2023-04-16T06:57:06.669Z,5.93
2023-04-16T06:59:33.929Z,4.82
2023-04-16T07:02:01.533Z,5.25
2023-04-16T07:04:28.984Z,5.05
2023-04-16T07:06:56.283Z,5.18
2023-04-16T07:09:23.490Z,4.93
2023-04-16T07:11:50.770Z,4.68
2023-04-16T07:14:18.089Z,7.50
2023-04-16T07:16:45.390Z,6.65
2023-04-16T07:19:12.653Z,5.25
2023-04-16T07:21:42.034Z,5.00
2023-04-16T07:24:09.325Z,4.95
2023-04-16T07:26:36.567Z,5.32
2023-04-16T07:29:03.848Z,5.55
2023-04-16T07:31:31.168Z,4.82
2023-04-16T07:33:58.455Z,5.80
2023-04-16T07:36:27.441Z,5.35
2023-04-16T07:38:54.732Z,5.78
2023-04-16T07:41:22.099Z,5.40
2023-04-16T07:43:49.341Z,5.70
2023-04-16T07:46:16.860Z,6.00
2023-04-16T07:48:44.197Z,5.38
2023-04-16T07:51:11.478Z,5.65
2023-04-16T07:53:38.667Z,5.78
2023-04-16T07:56:06.045Z,6.15
2023-04-16T07:58:33.335Z,5.15
2023-04-16T08:01:01.427Z,5.47
2023-04-16T08:03:28.872Z,5.60
2023-04-16T08:05:56.429Z,5.18
2023-04-16T08:08:23.703Z,5.80
2023-04-16T08:10:55.865Z,5.45
2023-04-16T08:13:24.046Z,5.65
2023-04-16T08:15:51.379Z,5.78
2023-04-16T08:18:19.117Z,6.07
2023-04-16T08:20:46.394Z,6.18
2023-04-16T08:23:13.187Z,5.82
2023-04-16T08:25:40.628Z,5.25
2023-04-16T08:28:07.460Z,5.25
2023-04-16T08:30:34.823Z,6.00
2023-04-16T08:33:02.166Z,5.28
2023-04-16T08:35:29.476Z,5.10
2023-04-16T08:37:57.945Z,5.70
2023-04-16T08:40:28.591Z,5.03
2023-04-16T08:42:58.878Z,5.13
2023-04-16T08:45:27.395Z,5.57
2023-04-16T08:47:54.631Z,5.35
2023-04-16T08:50:26.611Z,5.30
2023-04-16T08:53:03.446Z,5.03
2023-04-16T08:55:38.473Z,5.22
2023-04-16T08:58:14.309Z,5.22
2023-04-16T09:00:41.853Z,4.80
2023-04-16T09:03:10.306Z,5.43
2023-04-16T09:05:38.551Z,5.05
2023-04-16T09:08:06.813Z,4.60
2023-04-16T09:10:34.270Z,5.25
2023-04-16T09:13:01.612Z,4.88
2023-04-16T09:15:29.586Z,4.90
2023-04-16T09:17:57.665Z,4.43
2023-04-16T09:20:25.381Z,4.03
2023-04-16T09:22:52.688Z,4.93
2023-04-16T09:25:22.212Z,4.32
2023-04-16T09:27:52.213Z,4.35
2023-04-16T09:30:27.480Z,5.13
2023-04-16T09:33:22.298Z,4.45
2023-04-16T09:35:53.759Z,4.32
2023-04-16T09:38:21.152Z,4.05
2023-04-16T09:40:48.164Z,3.70
2023-04-16T09:43:17.169Z,4.35
2023-04-16T09:45:55.187Z,4.80
2023-04-16T09:48:32.012Z,4.68
2023-04-16T09:51:00.830Z,4.32
2023-04-16T09:53:31.255Z,4.15
2023-04-16T09:56:03.449Z,4.38
2023-04-16T09:58:30.849Z,4.10
2023-04-16T10:01:10.862Z,4.22
2023-04-16T10:03:40.360Z,4.55
2023-04-16T10:06:15.868Z,4.45
2023-04-16T10:08:50.294Z,4.20
2023-04-16T10:11:21.295Z,4.75
2023-04-16T10:13:48.608Z,4.25
2023-04-16T10:16:15.972Z,4.22
2023-04-16T10:18:45.560Z,4.85
2023-04-16T10:21:13.028Z,5.22
2023-04-16T10:23:40.812Z,5.80
2023-04-16T10:26:08.201Z,5.03
2023-04-16T10:28:35.775Z,5.13
2023-04-16T10:31:05.610Z,4.60
2023-04-16T10:33:34.517Z,4.70
2023-04-16T10:36:27.866Z,4.65
2023-04-16T10:38:59.590Z,4.20
2023-04-16T10:41:27.402Z,4.78
2023-04-16T10:44:06.507Z,4.00
2023-04-16T10:46:36.716Z,4.53
2023-04-16T10:49:13.608Z,4.15
2023-04-16T10:51:40.900Z,5.28
2023-04-16T10:54:14.562Z,4.57
2023-04-16T10:56:41.789Z,4.80
2023-04-16T10:59:11.202Z,5.07
2023-04-16T11:01:42.555Z,5.38
2023-04-16T11:04:21.912Z,4.15
2023-04-16T11:07:15.611Z,5.25
2023-04-16T11:09:42.810Z,4.93
2023-04-16T11:12:12.784Z,7.28
2023-04-16T11:14:42.033Z,6.40
2023-04-16T11:17:10.002Z,6.82
2023-04-16T11:19:38.228Z,5.78
2023-04-16T11:22:05.834Z,6.15
2023-04-16T11:24:33.505Z,6.18
2023-04-16T11:27:01.717Z,5.88
2023-04-16T11:29:28.689Z,6.00
2023-04-16T11:31:56.215Z,8.35
2023-04-16T11:34:23.555Z,7.13
2023-04-16T11:36:51.973Z,6.95
2023-04-16T11:39:19.689Z,5.40
2023-04-16T11:41:47.731Z,5.45
2023-04-16T11:44:21.508Z,5.15
2023-04-16T11:46:49.009Z,5.93
2023-04-16T11:49:17.565Z,4.82
2023-04-16T11:51:46.962Z,5.53
2023-04-16T11:54:21.476Z,5.45
2023-04-16T11:56:50.370Z,5.25
2023-04-16T11:59:19.394Z,5.38
2023-04-16T12:01:51.889Z,5.90
2023-04-16T12:04:27.058Z,5.85
2023-04-16T12:07:13.949Z,5.70
2023-04-16T12:09:42.721Z,5.75
2023-04-16T12:12:31.034Z,5.68
2023-04-16T12:15:05.184Z,4.90
2023-04-16T12:17:36.532Z,5.90
2023-04-16T12:20:08.384Z,5.38
2023-04-16T12:22:47.294Z,5.57
2023-04-16T12:25:16.531Z,5.93
2023-04-16T12:27:55.842Z,6.07
2023-04-16T12:30:24.321Z,5.80
2023-04-16T12:32:54.725Z,5.53
2023-04-16T12:35:33.826Z,5.65
2023-04-16T12:38:01.567Z,5.82
2023-04-16T12:40:28.912Z,5.85
2023-04-16T12:42:56.572Z,5.53
2023-04-16T12:45:24.560Z,5.18
2023-04-16T12:47:51.690Z,6.22
2023-04-16T12:50:18.954Z,5.90
2023-04-16T12:52:46.012Z,6.25
2023-04-16T12:55:14.203Z,5.53
2023-04-16T12:57:43.238Z,6.10
2023-04-16T13:00:11.349Z,4.78
2023-04-16T13:02:38.299Z,6.18
2023-04-16T13:05:05.800Z,5.82
2023-04-16T13:07:34.245Z,6.13
2023-04-16T13:10:01.348Z,5.82
2023-04-16T13:12:28.744Z,6.13
2023-04-16T13:14:56.339Z,6.38
2023-04-16T13:17:23.599Z,6.65
2023-04-16T13:19:50.468Z,6.57
2023-04-16T13:22:17.707Z,6.57
2023-04-16T13:24:45.006Z,6.03
2023-04-16T13:27:12.778Z,5.60
2023-04-16T13:29:40.014Z,6.00
2023-04-16T13:32:07.324Z,5.50
2023-04-16T13:34:34.626Z,6.47
2023-04-16T13:37:02.360Z,6.30
2023-04-16T13:39:29.622Z,5.45
2023-04-16T13:41:56.419Z,4.90
2023-04-16T13:44:23.716Z,5.32
2023-04-16T13:46:50.746Z,6.38
2023-04-16T13:49:17.594Z,5.20
2023-04-16T13:51:44.935Z,5.72
2023-04-16T13:54:12.045Z,5.97
2023-04-16T13:56:39.399Z,6.40
2023-04-16T13:59:06.654Z,6.15
2023-04-16T14:01:33.904Z,6.22
2023-04-16T14:04:06.305Z,6.13
2023-04-16T14:06:34.380Z,6.45
2023-04-16T14:09:01.893Z,6.57
2023-04-16T14:11:29.205Z,6.53
2023-04-16T14:13:56.188Z,5.82
2023-04-16T14:16:23.582Z,6.75
2023-04-16T14:18:52.067Z,6.15
2023-04-16T14:21:19.459Z,5.80
2023-04-16T14:23:46.875Z,5.78
2023-04-16T14:26:14.457Z,6.05
2023-04-16T14:28:42.144Z,5.93
2023-04-16T14:31:09.439Z,6.28
2023-04-16T14:33:36.952Z,6.07
2023-04-16T14:36:04.334Z,6.20
2023-04-16T14:38:32.093Z,6.70
2023-04-16T14:41:00.574Z,6.70
2023-04-16T14:43:27.928Z,6.22
2023-04-16T14:45:55.289Z,6.85
2023-04-16T14:48:22.265Z,5.57
2023-04-16T14:50:49.587Z,5.85
2023-04-16T14:53:17.250Z,6.15
2023-04-16T14:55:44.620Z,7.07
2023-04-16T14:58:11.883Z,5.47
2023-04-16T15:00:39.189Z,5.93
2023-04-16T15:03:06.718Z,6.68
2023-04-16T15:05:34.977Z,6.78
2023-04-16T15:08:02.719Z,6.65
2023-04-16T15:10:29.935Z,6.80
2023-04-16T15:12:56.793Z,6.60
2023-04-16T15:15:23.999Z,6.10
2023-04-16T15:17:51.956Z,7.03
2023-04-16T15:20:19.329Z,7.38
2023-04-16T15:22:46.577Z,7.00
2023-04-16T15:25:14.545Z,7.30
2023-04-16T15:27:41.845Z,7.03
2023-04-16T15:30:09.171Z,7.88
2023-04-16T15:32:36.477Z,6.35
2023-04-16T15:35:04.894Z,6.80
2023-04-16T15:37:32.222Z,6.93
2023-04-16T15:39:59.366Z,7.00
2023-04-16T15:42:26.341Z,7.32
2023-04-16T15:44:53.276Z,6.97
2023-04-16T15:47:20.887Z,6.43
2023-04-16T15:49:48.168Z,5.85
2023-04-16T15:52:16.000Z,6.97
2023-04-16T15:54:43.185Z,7.57
2023-04-16T15:57:10.896Z,8.00
2023-04-16T15:59:38.178Z,6.82
2023-04-16T16:02:06.000Z,6.78
2023-04-16T16:04:33.389Z,6.93
2023-04-16T16:07:02.553Z,6.78
2023-04-16T16:09:29.779Z,6.72
2023-04-16T16:11:58.846Z,6.80
2023-04-16T16:14:26.970Z,6.55
2023-04-16T16:16:54.255Z,7.05
2023-04-16T16:19:21.675Z,7.18
2023-04-16T16:21:48.944Z,6.30
2023-04-16T16:24:16.221Z,7.07
2023-04-16T16:26:43.537Z,7.30
2023-04-16T16:29:11.153Z,7.20
2023-04-16T16:31:38.469Z,6.30
2023-04-16T16:34:05.848Z,7.00
2023-04-16T16:36:36.682Z,7.03
2023-04-16T16:39:04.760Z,6.90
2023-04-16T16:41:32.328Z,7.20
2023-04-16T16:43:59.687Z,7.38
2023-04-16T16:46:26.712Z,6.65
2023-04-16T16:48:53.586Z,7.63
2023-04-16T16:51:20.604Z,7.20
2023-04-16T16:53:48.486Z,7.18
2023-04-16T16:56:15.978Z,7.07
2023-04-16T16:58:43.201Z,6.93
2023-04-16T17:01:10.508Z,7.25
2023-04-16T17:03:37.571Z,7.75
2023-04-16T17:06:05.180Z,7.13
2023-04-16T17:08:32.410Z,7.85
2023-04-16T17:10:59.691Z,8.40
2023-04-16T17:13:26.965Z,7.40
2023-04-16T17:15:54.207Z,7.72
2023-04-16T17:18:21.441Z,6.72
2023-04-16T17:20:48.681Z,7.38
2023-04-16T17:23:16.254Z,6.95
2023-04-16T17:25:43.301Z,8.10
2023-04-16T17:28:10.148Z,7.18
2023-04-16T17:30:38.966Z,7.03
2023-04-16T17:33:07.388Z,7.80
2023-04-16T17:35:38.956Z,6.88
2023-04-16T17:38:07.592Z,6.68
2023-04-16T17:40:35.170Z,7.50
2023-04-16T17:43:02.594Z,7.55
2023-04-16T17:45:30.274Z,7.82
2023-04-16T17:47:58.222Z,8.85
2023-04-16T17:50:27.695Z,6.70
2023-04-16T17:52:55.242Z,7.53
2023-04-16T17:55:23.018Z,8.05
2023-04-16T17:57:50.754Z,8.27
2023-04-16T18:00:18.172Z,8.32
2023-04-16T18:02:45.791Z,7.30
2023-04-16T18:05:12.893Z,7.00
2023-04-16T18:07:39.996Z,7.00
2023-04-16T18:10:07.877Z,6.53
2023-04-16T18:12:34.738Z,7.45
2023-04-16T18:15:02.125Z,7.68
2023-04-16T18:17:29.770Z,7.50
2023-04-16T18:19:57.485Z,6.75
2023-04-16T18:22:26.307Z,7.70
2023-04-16T18:24:55.118Z,6.53
2023-04-16T18:27:22.031Z,7.20
2023-04-16T18:29:51.692Z,7.47
2023-04-16T18:32:19.225Z,7.45
2023-04-16T18:34:46.939Z,7.35
2023-04-16T18:37:14.084Z,7.05
2023-04-16T18:39:41.806Z,6.53
2023-04-16T18:42:08.733Z,7.55
2023-04-16T18:44:36.020Z,7.68
2023-04-16T18:47:03.582Z,7.00
2023-04-16T18:49:30.863Z,6.55
2023-04-16T18:51:58.264Z,7.25
2023-04-16T18:54:25.458Z,7.25
2023-04-16T18:56:52.936Z,6.60
2023-04-16T18:59:20.215Z,6.43
2023-04-16T19:01:47.573Z,6.15
2023-04-16T19:04:15.205Z,6.25
2023-04-16T19:06:42.571Z,6.65
2023-04-16T19:09:11.442Z,6.85
2023-04-16T19:11:39.200Z,6.43
2023-04-16T19:14:07.849Z,6.68
2023-04-16T19:16:35.170Z,6.45
2023-04-16T19:19:02.457Z,5.68
2023-04-16T19:21:29.913Z,6.68
2023-04-16T19:23:58.439Z,6.90
2023-04-16T19:26:26.484Z,7.15
2023-04-16T19:28:53.712Z,6.53
2023-04-16T19:31:21.396Z,6.38
2023-04-16T19:33:49.218Z,6.18
2023-04-16T19:36:16.460Z,6.20
2023-04-16T19:38:43.270Z,5.57
2023-04-16T19:41:10.562Z,6.43
2023-04-16T19:43:37.795Z,6.32
2023-04-16T19:46:05.161Z,5.93
2023-04-16T19:48:32.480Z,6.13
2023-04-16T19:51:05.956Z,6.13
2023-04-16T19:53:34.401Z,6.07
2023-04-16T19:56:01.846Z,5.95
2023-04-16T19:58:28.666Z,6.53
2023-04-16T20:00:56.460Z,6.57
2023-04-16T20:03:23.329Z,7.15
2023-04-16T20:05:50.825Z,6.55
2023-04-16T20:08:17.708Z,6.80
2023-04-16T20:10:44.654Z,6.70
2023-04-16T20:13:13.651Z,7.50
2023-04-16T20:15:41.092Z,7.28
2023-04-16T20:18:08.869Z,6.63
2023-04-16T20:20:37.896Z,7.72
2023-04-16T20:23:05.570Z,7.70
2023-04-16T20:25:32.836Z,7.30
2023-04-16T20:27:59.610Z,7.07
2023-04-16T20:30:29.336Z,7.18
2023-04-16T20:32:56.540Z,7.00
2023-04-16T20:35:23.512Z,7.40
2023-04-16T20:37:50.757Z,7.07
2023-04-16T20:40:17.660Z,7.47
2023-04-16T20:42:47.669Z,7.28
2023-04-16T20:45:14.505Z,7.22
2023-04-16T20:47:43.454Z,6.90
2023-04-16T20:50:11.228Z,6.57
2023-04-16T20:52:38.115Z,7.00
2023-04-16T20:55:05.808Z,7.40
2023-04-16T20:57:33.005Z,6.53
2023-04-16T21:00:00.234Z,6.97
2023-04-16T21:02:28.466Z,6.65
2023-04-16T21:04:55.560Z,6.45
2023-04-16T21:07:23.133Z,7.20
2023-04-16T21:09:50.414Z,6.88
2023-04-16T21:12:17.212Z,7.53
2023-04-16T21:14:44.430Z,6.75
2023-04-16T21:17:11.263Z,6.15
2023-04-16T21:19:40.111Z,7.20
2023-04-16T21:22:07.366Z,6.82
2023-04-16T21:24:35.880Z,6.25
2023-04-16T21:27:03.325Z,6.93
2023-04-16T21:29:30.561Z,5.90
2023-04-16T21:31:57.458Z,6.38
2023-04-16T21:34:24.294Z,7.03
2023-04-16T21:36:51.514Z,7.00
2023-04-16T21:39:19.828Z,6.90
2023-04-16T21:41:46.670Z,6.13
2023-04-16T21:44:15.177Z,6.25
2023-04-16T21:46:42.448Z,7.40
2023-04-16T21:49:09.602Z,7.53
2023-04-16T21:51:38.646Z,6.68
2023-04-16T21:54:06.870Z,6.68
2023-04-16T21:56:33.758Z,6.20
2023-04-16T21:59:01.064Z,6.03
2023-04-16T22:01:27.955Z,6.97
2023-04-16T22:03:55.668Z,7.07
2023-04-16T22:06:23.153Z,7.22
2023-04-16T22:08:50.567Z,5.88
2023-04-16T22:11:17.941Z,7.32
2023-04-16T22:13:46.516Z,7.05
2023-04-16T22:16:13.391Z,7.07
2023-04-16T22:18:41.088Z,6.65
2023-04-16T22:21:07.929Z,6.63
2023-04-16T22:23:35.231Z,6.97
2023-04-16T22:26:02.820Z,6.03
2023-04-16T22:28:29.813Z,7.25
2023-04-16T22:30:56.999Z,6.07
2023-04-16T22:33:24.214Z,6.47
2023-04-16T22:35:51.222Z,5.93
2023-04-16T22:38:18.472Z,6.45
2023-04-16T22:40:48.535Z,5.90
2023-04-16T22:43:17.590Z,6.38
2023-04-16T22:45:46.376Z,6.70
2023-04-16T22:48:13.802Z,6.72
2023-04-16T22:50:45.713Z,5.97
2023-04-16T22:53:12.534Z,6.28
2023-04-16T22:55:39.775Z,6.60
2023-04-16T22:58:06.551Z,6.22
2023-04-16T23:00:34.257Z,6.43
2023-04-16T23:03:01.498Z,6.15
2023-04-16T23:05:28.955Z,6.45
2023-04-16T23:07:56.346Z,5.40
2023-04-16T23:10:23.577Z,6.10
2023-04-16T23:12:50.979Z,6.45
2023-04-16T23:15:18.259Z,5.47
2023-04-16T23:17:45.929Z,6.32
2023-04-16T23:20:13.438Z,6.78
2023-04-16T23:22:41.229Z,5.68
2023-04-16T23:25:09.005Z,6.13
2023-04-16T23:27:36.728Z,6.10
2023-04-16T23:30:04.302Z,6.40
2023-04-16T23:32:32.000Z,6.03
2023-04-16T23:34:59.269Z,5.97
2023-04-16T23:37:26.212Z,5.25
2023-04-16T23:39:53.534Z,6.75
2023-04-16T23:42:21.010Z,6.20
2023-04-16T23:44:47.837Z,5.88
2023-04-16T23:47:15.172Z,5.63
2023-04-16T23:49:42.006Z,6.15
2023-04-16T23:52:09.379Z,6.38
2023-04-16T23:54:36.267Z,6.20
2023-04-16T23:57:03.766Z,6.32
2023-04-16T23:59:30.600Z,5.50
